• Join FlightAware (Why Join?)
  • Login
  • US Flag 
11:57PM EST


 

Airport Tracker/Info


-or-


 

Live Flight TrackerFlight Track Log ✈ SKW6338 ✈ 20-May-2013 ✈ KLAX - KSAN

Flight Track Log - Related Links

Times and Time Zones

All times are in EDT time to prevent confusion due to time zone crossing. See the SKW6338 flight status page for this flight to view local times or setup timezone preferences in your user account.

Time Position Orientation Groundspeed Altitude Reporting Facility
EDT Latitude Longitude Course Direction KTS MPH feet Rate Location/Type
07:07PM 33.9167 -118.4667 140° Southeast 196 226 3,000  Level Southern California TRACON
07:08PM 33.8667 -118.4833 195° South 190 219 4,500 1,380 Climbing Southern California TRACON
07:09PM 33.7424 -118.2032 140° Southeast  Level Estimated
07:09PM 33.8122 -118.4708 169° South 195 224 5,900  Level Los Angeles Center
07:10PM 33.6756 -118.1351 139° Southeast  Level Estimated
07:10PM 33.7578 -118.4561 167° South 203 234 7,000  Level Los Angeles Center
07:11PM 33.6091 -118.0668 139° Southeast  Level FlightAware Approximate
07:11PM 33.6997 -118.4094 146° Southeast 212 244 8,400  Level Los Angeles Center
07:12PM 33.5425 -117.9986 140° Southeast  Level FlightAware Approximate
07:12PM 33.6619 -118.3500 127° Southeast 225 259 8,900  Level Los Angeles Center
07:13PM 33.6242 -118.2831 124° Southeast 238 274 9,000  Climbing Los Angeles Center
07:14PM 33.5836 -118.2156 126° Southeast 245 282 9,000  Level Los Angeles Center
07:15PM 33.5381 -118.1361 125° Southeast 245 282 9,000  Level Los Angeles Center
07:16PM 33.5019 -118.0683 123° Southeast 242 278 9,000  Level Los Angeles Center
07:17PM 33.4653 -118.0025 124° Southeast 241 277 9,000  Level Los Angeles Center
07:18PM 33.4272 -117.9347 124° Southeast 243 280 9,000  Level Los Angeles Center
07:19PM 33.3906 -117.8694 124° Southeast 241 277 9,000  Level Los Angeles Center
07:20PM 33.3531 -117.8039 124° Southeast 240 276 9,000  Level Los Angeles Center
07:21PM 33.3086 -117.7247 124° Southeast 241 277 9,000  Level Los Angeles Center
07:22PM 33.2711 -117.6581 124° Southeast 241 277 9,000  Level Los Angeles Center
07:23PM 33.2500 -117.6167 121° Southeast 240 276 9,000  Level Southern California TRACON
07:24PM 33.2167 -117.5500 121° Southeast 239 275 9,000 -120 Level Southern California TRACON
07:25PM 33.1500 -117.5000 148° Southeast 249 287 8,800 -420 Descending Southern California TRACON
07:26PM 33.1000 -117.4500 140° Southeast 258 297 8,200 -540 Descending Southern California TRACON
07:26PM 33.0736 -117.4392 161° South 257 296 8,000 -600 Descending Los Angeles Center
07:27PM 32.9994 -117.3833 148° Southeast 263 303 7,300 -600 Descending Los Angeles Center
07:28PM 32.9667 -117.3667 157° South 264 304 7,100 -420 Descending Southern California TRACON
07:29PM 32.9167 -117.3000 132° Southeast 256 295 6,700 -660 Descending Southern California TRACON
07:30PM 32.8667 -117.2500 140° Southeast 247 284 5,800 -840 Descending Southern California TRACON
07:30PM 32.8478 -117.2103 120° Southeast 250 288 5,400 -540 Descending Los Angeles Center
07:31PM 32.8042 -117.1464 129° Southeast 234 269 5,000 -240 Descending Los Angeles Center
07:32PM 32.7681 -117.0928 129° Southeast 215 247 5,000  Level Los Angeles Center
07:33PM 32.7569 -117.0264 101° East 210 242 5,000 -480 Level Los Angeles Center
07:35PM 32.7383 -116.9661 110° East 199 229 4,100 -540 Descending Los Angeles Center
07:36PM 32.6861 -116.9764 189° South 203 234 4,000 -720 Descending Los Angeles Center
07:37PM 32.6950 -117.0494 278° West 198 228 2,700 -1,260 Descending Los Angeles Center
07:38PM 32.7167 -117.1000 297° West 133 153 1,400 -1,200 Descending Southern California TRACON